Time;durP1;ratioP1;P1;durP2;ratioP2;P2;SDS_P1;SDS_P2;PMS_P1;PMS_P2;Temp;Humidity;BMP_temperature;BMP_pressure;BME280_temperature;BME280_humidity;BME280_pressure;Samples;Min_cycle;Max_cycle;Signal;HPM_P1;HPM_P2
2022/04/08 00:01:45;;;;;;;1.00;1.00;;;11.90;99.90;;;;;;5014941;28;20244;-64
2022/04/08 00:04:12;;;;;;;1.40;1.30;;;11.90;99.90;;;;;;5004082;28;20220;-62
2022/04/08 00:06:38;;;;;;;1.73;1.10;;;11.90;99.90;;;;;;4995586;28;20222;-63
2022/04/08 00:09:07;;;;;;;0.95;0.95;;;11.90;99.90;;;;;;5020526;28;20206;-65
2022/04/08 00:11:34;;;;;;;1.20;1.10;;;11.90;99.90;;;;;;5032364;28;20236;-63
2022/04/08 00:14:00;;;;;;;1.40;1.30;;;11.90;99.90;;;;;;5035052;28;20240;-64
2022/04/08 00:16:28;;;;;;;1.13;1.10;;;11.90;99.90;;;;;;5033922;28;20315;-64
2022/04/08 00:18:55;;;;;;;1.47;1.10;;;11.80;99.90;;;;;;5061537;22;20234;-63
2022/04/08 00:21:24;;;;;;;0.90;0.90;;;11.90;99.90;;;;;;5045685;28;20207;-65
2022/04/08 00:23:51;;;;;;;1.20;1.10;;;11.80;99.90;;;;;;5053058;28;20211;-64
2022/04/08 00:26:19;;;;;;;1.77;1.23;;;11.80;99.90;;;;;;5052816;28;20231;-64
2022/04/08 00:28:46;;;;;;;1.50;1.40;;;11.80;99.90;;;;;;5033601;28;20302;-63
2022/04/08 00:31:13;;;;;;;1.20;1.10;;;11.70;99.90;;;;;;5031309;28;20213;-63
2022/04/08 00:33:40;;;;;;;1.00;1.00;;;11.70;99.90;;;;;;5032806;28;20204;-63
2022/04/08 00:36:07;;;;;;;1.23;1.13;;;11.70;99.90;;;;;;5032354;28;20200;-63
2022/04/08 00:38:34;;;;;;;1.20;1.10;;;11.70;99.90;;;;;;5032931;28;20227;-63
2022/04/08 00:41:01;;;;;;;1.93;1.10;;;11.70;99.90;;;;;;5032721;28;20753;-64
2022/04/08 00:43:37;;;;;;;1.00;1.00;;;11.70;99.90;;;;;;5033075;28;20274;-64
2022/04/08 00:46:06;;;;;;;1.17;1.07;;;11.60;99.90;;;;;;5032517;28;20675;-63
2022/04/08 00:48:34;;;;;;;1.53;1.20;;;11.60;99.90;;;;;;5032364;28;20225;-63
2022/04/08 00:51:01;;;;;;;2.43;1.07;;;11.60;99.90;;;;;;5032482;28;20291;-64
2022/04/08 00:53:29;;;;;;;0.97;0.97;;;11.60;99.90;;;;;;5032755;28;20211;-63
2022/04/08 00:55:56;;;;;;;1.13;1.03;;;11.60;99.90;;;;;;5032132;28;20240;-64
2022/04/08 00:58:24;;;;;;;1.23;1.13;;;11.60;99.90;;;;;;5031278;28;20257;-64
2022/04/08 01:00:53;;;;;;;0.87;0.87;;;11.60;99.90;;;;;;5032478;28;20212;-64
2022/04/08 01:03:20;;;;;;;1.57;1.07;;;11.60;99.90;;;;;;5032510;28;20295;-64
2022/04/08 01:05:47;;;;;;;0.87;0.87;;;11.60;99.90;;;;;;5032226;28;20236;-64
2022/04/08 01:08:17;;;;;;;1.30;1.20;;;11.60;99.90;;;;;;5032277;28;20221;-63
2022/04/08 01:24:15;;;;;;;0.70;0.70;;;11.60;99.90;;;;;;5031466;28;20207;-63
2022/04/08 01:26:43;;;;;;;1.03;0.80;;;11.50;99.90;;;;;;5032775;28;20324;-63
2022/04/08 01:29:10;;;;;;;0.70;0.70;;;11.50;99.90;;;;;;5035213;28;20641;-62
2022/04/08 01:31:43;;;;;;;0.87;0.87;;;11.50;99.90;;;;;;5033847;28;20209;-65
2022/04/08 01:34:10;;;;;;;1.10;1.03;;;11.50;99.90;;;;;;5032394;28;20208;-61
2022/04/08 01:36:38;;;;;;;0.70;0.70;;;11.40;99.90;;;;;;5031183;28;20232;-62
2022/04/08 01:39:05;;;;;;;0.80;0.80;;;11.40;99.90;;;;;;5031250;28;20236;-65
2022/04/08 01:41:32;;;;;;;0.80;0.80;;;11.40;99.90;;;;;;5031541;28;20255;-64
2022/04/08 01:44:00;;;;;;;0.90;0.90;;;11.40;99.90;;;;;;5031902;28;20219;-63
2022/04/08 02:16:46;;;;;;;1.20;1.10;;;11.00;99.90;;;;;;5033768;28;20215;-63
2022/04/08 02:19:13;;;;;;;0.80;0.80;;;11.00;99.90;;;;;;5039989;28;20255;-63
2022/04/08 02:21:40;;;;;;;0.70;0.70;;;11.00;99.90;;;;;;5040337;28;20254;-63
2022/04/08 02:24:08;;;;;;;0.90;0.90;;;10.90;99.90;;;;;;5039652;28;20292;-63
2022/04/08 02:26:35;;;;;;;0.80;0.80;;;10.90;99.90;;;;;;5039414;28;20209;-62
2022/04/08 02:29:02;;;;;;;0.90;0.90;;;10.90;99.90;;;;;;5036075;28;20282;-63
2022/04/08 02:31:29;;;;;;;0.83;0.83;;;10.90;99.90;;;;;;5035573;28;20720;-62
2022/04/08 02:33:57;;;;;;;0.83;0.83;;;10.60;99.90;;;;;;5038810;28;20236;-62
2022/04/08 02:36:24;;;;;;;1.27;1.07;;;10.80;99.90;;;;;;5037551;28;20250;-61
2022/04/08 02:38:51;;;;;;;1.03;0.93;;;10.80;99.90;;;;;;5037300;28;20311;-64
2022/04/08 02:41:17;;;;;;;0.90;0.90;;;10.80;99.90;;;;;;5033986;28;20600;-62
2022/04/08 02:43:44;;;;;;;0.80;0.77;;;10.80;99.90;;;;;;5034604;28;20203;-64
2022/04/08 02:46:13;;;;;;;0.77;0.77;;;10.80;99.90;;;;;;5034340;28;20733;-64
2022/04/08 02:48:40;;;;;;;0.93;0.90;;;10.80;99.90;;;;;;5034852;28;20311;-62
2022/04/08 02:51:08;;;;;;;0.90;0.90;;;10.70;99.90;;;;;;5035396;28;20240;-63
2022/04/08 02:53:35;;;;;;;1.10;1.00;;;10.80;99.90;;;;;;5035023;28;20291;-64
2022/04/08 02:56:02;;;;;;;1.20;1.00;;;10.70;99.90;;;;;;5034712;28;20944;-63
2022/04/08 02:58:29;;;;;;;0.85;0.85;;;10.80;99.90;;;;;;5034212;28;20231;-64
2022/04/08 03:00:59;;;;;;;0.77;0.77;;;10.70;99.90;;;;;;5025737;28;20205;-63
2022/04/08 03:03:26;;;;;;;0.97;0.97;;;10.80;99.90;;;;;;5035296;28;20670;-64
2022/04/08 03:05:53;;;;;;;0.87;0.83;;;10.90;99.90;;;;;;5035106;28;20549;-62
2022/04/08 03:08:21;;;;;;;0.60;0.60;;;11.00;99.90;;;;;;5032830;28;20710;-65
2022/04/08 03:10:48;;;;;;;0.67;0.67;;;11.10;99.90;;;;;;5034740;28;20928;-62
2022/04/08 03:13:16;;;;;;;0.70;0.70;;;11.10;99.90;;;;;;5035001;28;20211;-63
2022/04/08 03:15:42;;;;;;;1.00;1.00;;;11.20;99.90;;;;;;5032459;28;20295;-62
2022/04/08 03:18:09;;;;;;;0.80;0.80;;;11.20;99.90;;;;;;5028011;28;20319;-62
2022/04/08 03:20:36;;;;;;;0.70;0.70;;;11.30;99.90;;;;;;5034880;28;20239;-63
2022/04/08 03:23:04;;;;;;;0.80;0.80;;;11.30;99.90;;;;;;5035322;28;20232;-62
2022/04/08 03:25:32;;;;;;;0.80;0.80;;;11.40;99.90;;;;;;5035042;28;20220;-63
2022/04/08 03:28:00;;;;;;;0.67;0.67;;;11.30;99.90;;;;;;5034103;28;20308;-62
2022/04/08 03:30:27;;;;;;;0.63;0.63;;;11.30;99.90;;;;;;5033845;28;20208;-64
2022/04/08 03:32:55;;;;;;;0.70;0.70;;;11.30;99.90;;;;;;5034801;28;20303;-63
2022/04/08 03:35:21;;;;;;;0.90;0.90;;;11.30;99.90;;;;;;5033798;28;20233;-62
2022/04/08 03:37:48;;;;;;;0.90;0.90;;;11.20;99.90;;;;;;5034394;28;20225;-63
2022/04/08 03:40:16;;;;;;;0.70;0.70;;;11.20;99.90;;;;;;5034261;28;20291;-62
2022/04/08 03:42:44;;;;;;;0.70;0.70;;;11.20;99.90;;;;;;5034102;28;20267;-63
2022/04/08 03:45:13;;;;;;;0.60;0.60;;;11.20;99.90;;;;;;5033898;28;20291;-63
2022/04/08 03:47:40;;;;;;;0.87;0.87;;;11.20;99.90;;;;;;5033983;28;20195;-62
2022/04/08 03:50:08;;;;;;;0.70;0.70;;;11.20;99.90;;;;;;5033166;28;20263;-63
2022/04/08 03:52:34;;;;;;;0.83;0.83;;;11.10;99.90;;;;;;5031808;28;20271;-64
2022/04/08 03:55:02;;;;;;;0.87;0.87;;;11.00;99.90;;;;;;5029208;28;20228;-63
2022/04/08 03:57:29;;;;;;;0.73;0.73;;;10.90;99.90;;;;;;5031417;28;20225;-63
2022/04/08 03:59:57;;;;;;;0.63;0.63;;;10.70;99.90;;;;;;5027294;28;20232;-64
2022/04/08 04:02:24;;;;;;;0.83;0.80;;;10.60;99.90;;;;;;5025252;28;20293;-64
2022/04/08 04:04:51;;;;;;;1.00;1.00;;;10.50;99.90;;;;;;5028944;28;20295;-63
2022/04/08 04:07:18;;;;;;;0.70;0.70;;;10.50;99.90;;;;;;5021135;28;20258;-63
2022/04/08 04:09:46;;;;;;;0.80;0.80;;;10.50;99.90;;;;;;5021908;28;20300;-64
2022/04/08 04:12:14;;;;;;;0.80;0.80;;;10.50;99.90;;;;;;5021520;28;20227;-64
2022/04/08 04:14:41;;;;;;;0.80;0.80;;;10.50;99.90;;;;;;5020268;28;20201;-63
2022/04/08 04:17:09;;;;;;;0.90;0.87;;;10.40;99.90;;;;;;5020305;28;20251;-63
2022/04/08 04:19:36;;;;;;;0.90;0.90;;;10.40;99.90;;;;;;5025925;28;20327;-63
2022/04/08 04:22:03;;;;;;;0.90;0.90;;;10.30;99.90;;;;;;5027685;28;20295;-63
2022/04/08 04:24:30;;;;;;;0.80;0.80;;;10.20;99.90;;;;;;5034965;28;20236;-63
2022/04/08 04:26:57;;;;;;;1.00;1.00;;;10.30;99.90;;;;;;5032335;28;20240;-63
2022/04/08 04:29:24;;;;;;;1.30;0.98;;;10.30;99.90;;;;;;5028154;28;20315;-62
2022/04/08 04:31:55;;;;;;;1.13;0.90;;;10.50;99.90;;;;;;5026985;28;20672;-64
2022/04/08 04:34:23;;;;;;;0.77;0.77;;;10.60;99.90;;;;;;5033634;28;20254;-65
2022/04/08 04:36:50;;;;;;;0.67;0.67;;;10.70;99.90;;;;;;5026589;28;20204;-63
2022/04/08 04:39:17;;;;;;;0.70;0.70;;;10.70;99.90;;;;;;5021414;28;20311;-63
2022/04/08 04:41:44;;;;;;;0.60;0.60;;;10.80;99.90;;;;;;5024440;28;20235;-63
2022/04/08 04:44:11;;;;;;;0.50;0.50;;;10.80;99.90;;;;;;5024373;28;20233;-62
2022/04/08 04:46:38;;;;;;;0.50;0.50;;;10.80;99.90;;;;;;5024354;28;20211;-62
2022/04/08 04:49:05;;;;;;;1.60;1.03;;;10.90;99.90;;;;;;5025618;28;20240;-64
2022/04/08 04:51:33;;;;;;;0.53;0.53;;;10.90;99.90;;;;;;5027980;28;20697;-62
2022/04/08 04:54:00;;;;;;;0.70;0.70;;;10.90;99.90;;;;;;5028472;28;20215;-63
2022/04/08 04:56:27;;;;;;;0.70;0.70;;;10.90;99.90;;;;;;5024942;28;20209;-63
2022/04/08 04:58:54;;;;;;;0.70;0.70;;;10.90;99.90;;;;;;5022862;28;20229;-64
2022/04/08 05:01:21;;;;;;;0.93;0.63;;;10.90;99.90;;;;;;5025275;28;20251;-64
2022/04/08 05:03:48;;;;;;;0.70;0.70;;;10.90;99.90;;;;;;5022704;28;20205;-65
2022/04/08 05:06:15;;;;;;;0.77;0.77;;;10.80;99.90;;;;;;5030729;28;20299;-64
2022/04/08 05:08:43;;;;;;;0.60;0.60;;;10.80;99.90;;;;;;5032111;28;20316;-65
2022/04/08 05:11:10;;;;;;;0.30;0.30;;;10.80;99.90;;;;;;5032887;28;20270;-63
2022/04/08 05:13:37;;;;;;;0.70;0.70;;;10.70;99.90;;;;;;5033354;28;20323;-62
2022/04/08 05:16:04;;;;;;;0.80;0.77;;;10.80;99.90;;;;;;5025462;28;20291;-63
2022/04/08 05:18:31;;;;;;;0.50;0.50;;;10.70;99.90;;;;;;5032473;28;20283;-62
2022/04/08 05:20:58;;;;;;;0.50;0.50;;;10.70;99.90;;;;;;5032801;28;20650;-62
2022/04/08 05:23:29;;;;;;;0.50;0.50;;;10.50;99.90;;;;;;5033458;28;20200;-62
2022/04/08 05:25:58;;;;;;;0.53;0.53;;;10.50;99.90;;;;;;5034158;28;20216;-62
2022/04/08 05:28:25;;;;;;;0.60;0.60;;;10.40;99.90;;;;;;5033303;28;20319;-62
2022/04/08 05:30:53;;;;;;;0.60;0.60;;;10.40;99.90;;;;;;5030898;28;20430;-64
2022/04/08 05:33:20;;;;;;;0.60;0.60;;;10.40;99.90;;;;;;5031344;28;20655;-63
2022/04/08 05:35:47;;;;;;;0.60;0.60;;;10.40;99.90;;;;;;5030142;28;20288;-63
2022/04/08 05:38:14;;;;;;;0.73;0.73;;;10.40;99.90;;;;;;5031903;28;20320;-63
2022/04/08 05:40:41;;;;;;;1.07;0.77;;;10.40;99.90;;;;;;5030736;28;20250;-62
2022/04/08 05:43:10;;;;;;;0.83;0.83;;;10.40;99.90;;;;;;5032486;28;20208;-63
2022/04/08 05:45:37;;;;;;;0.40;0.40;;;10.30;99.90;;;;;;5031581;28;20635;-63
2022/04/08 05:48:05;;;;;;;0.63;0.63;;;10.30;99.90;;;;;;5031700;28;20639;-62
2022/04/08 05:50:32;;;;;;;0.73;0.73;;;10.20;99.90;;;;;;5029334;28;20906;-62
2022/04/08 05:53:00;;;;;;;0.83;0.83;;;10.20;99.90;;;;;;5032044;28;20240;-61
2022/04/08 05:55:26;;;;;;;0.73;0.73;;;10.20;99.90;;;;;;5031919;28;20295;-63
2022/04/08 05:57:55;;;;;;;0.80;0.80;;;10.10;99.90;;;;;;5031364;28;20228;-62
2022/04/08 06:00:24;;;;;;;0.73;0.73;;;10.00;99.90;;;;;;5031767;28;20710;-63
2022/04/08 06:02:53;;;;;;;0.60;0.60;;;10.00;99.90;;;;;;5031598;28;20709;-61
2022/04/08 06:05:20;;;;;;;0.82;0.82;;;9.90;99.90;;;;;;5031145;28;20213;-63
2022/04/08 06:07:48;;;;;;;1.00;1.00;;;10.00;99.90;;;;;;5031810;28;20888;-64
2022/04/08 06:10:18;;;;;;;0.77;0.77;;;9.90;99.90;;;;;;5031730;28;20682;-63
2022/04/08 06:12:46;;;;;;;0.70;0.70;;;9.90;99.90;;;;;;5032500;28;20295;-63
2022/04/08 06:15:13;;;;;;;0.85;0.85;;;9.70;99.90;;;;;;5032414;28;20286;-61
2022/04/08 06:17:42;;;;;;;0.73;0.73;;;9.80;99.90;;;;;;5033702;28;20232;-62
2022/04/08 06:20:11;;;;;;;0.60;0.60;;;9.70;99.90;;;;;;5046511;22;20252;-66
2022/04/08 06:22:39;;;;;;;0.90;0.90;;;9.70;99.90;;;;;;5031826;28;20251;-67
2022/04/08 06:25:08;;;;;;;0.90;0.90;;;9.60;99.90;;;;;;5031190;28;20244;-66
2022/04/08 06:27:35;;;;;;;0.80;0.80;;;9.60;99.90;;;;;;5030665;28;20211;-66
2022/04/08 06:30:03;;;;;;;0.80;0.80;;;9.60;99.90;;;;;;5031446;28;20232;-66
2022/04/08 06:32:30;;;;;;;0.80;0.80;;;9.50;99.90;;;;;;5031577;28;20228;-65
2022/04/08 06:34:58;;;;;;;0.90;0.90;;;9.60;99.90;;;;;;5030623;28;20228;-67
2022/04/08 06:37:28;;;;;;;0.80;0.80;;;9.50;99.90;;;;;;5032203;28;20232;-66
2022/04/08 06:39:55;;;;;;;0.90;0.90;;;9.50;99.90;;;;;;5032923;28;20228;-66
2022/04/08 06:42:23;;;;;;;0.67;0.67;;;9.50;99.90;;;;;;5033012;28;20232;-67
2022/04/08 06:44:50;;;;;;;0.70;0.70;;;9.50;99.90;;;;;;5032249;28;20204;-66
2022/04/08 06:47:17;;;;;;;0.90;0.90;;;9.50;99.90;;;;;;5030989;28;20633;-66
2022/04/08 06:49:46;;;;;;;0.70;0.70;;;9.50;99.90;;;;;;5031329;28;20300;-66
2022/04/08 06:52:15;;;;;;;0.67;0.67;;;9.50;99.90;;;;;;5031543;28;20577;-66
2022/04/08 06:54:42;;;;;;;0.90;0.80;;;9.50;99.90;;;;;;5031111;28;20235;-66
2022/04/08 06:57:09;;;;;;;0.80;0.80;;;9.40;99.90;;;;;;5031733;28;20209;-68
2022/04/08 06:59:36;;;;;;;0.70;0.70;;;9.40;99.90;;;;;;5033972;28;20229;-66
2022/04/08 07:02:04;;;;;;;0.83;0.83;;;9.40;99.90;;;;;;5034755;28;20291;-67
2022/04/08 07:04:30;;;;;;;2.37;1.20;;;9.40;99.90;;;;;;5034446;28;20675;-66
2022/04/08 07:06:57;;;;;;;0.93;0.93;;;9.30;99.90;;;;;;5035073;28;20239;-67
2022/04/08 07:09:26;;;;;;;0.70;0.70;;;9.30;99.90;;;;;;5042083;28;20307;-67
2022/04/08 07:11:52;;;;;;;0.80;0.80;;;9.20;99.90;;;;;;5041757;28;20635;-67
2022/04/08 07:14:20;;;;;;;1.10;0.90;;;9.10;99.90;;;;;;5038215;28;20269;-67
2022/04/08 07:16:47;;;;;;;1.00;1.00;;;9.00;99.90;;;;;;5034149;28;20291;-67
2022/04/08 07:19:14;;;;;;;0.90;0.90;;;9.10;99.90;;;;;;5036364;28;20314;-67
2022/04/08 07:21:41;;;;;;;1.13;0.97;;;9.10;99.90;;;;;;5035221;28;20297;-66
2022/04/08 07:24:09;;;;;;;0.77;0.77;;;9.10;99.90;;;;;;5038650;28;20232;-66
2022/04/08 07:26:39;;;;;;;1.00;1.00;;;9.10;99.90;;;;;;5040091;28;20223;-67
2022/04/08 07:29:06;;;;;;;0.90;0.90;;;9.10;99.90;;;;;;5040909;28;20216;-67
2022/04/08 07:31:34;;;;;;;0.87;0.87;;;9.30;99.90;;;;;;5036868;28;20209;-67
2022/04/08 07:34:01;;;;;;;0.70;0.70;;;9.20;99.90;;;;;;5035540;28;20829;-66
2022/04/08 07:36:28;;;;;;;0.70;0.70;;;9.30;99.90;;;;;;5034869;28;20246;-67
2022/04/08 07:38:54;;;;;;;0.80;0.80;;;9.30;99.90;;;;;;5036266;28;20343;-67
2022/04/08 07:41:21;;;;;;;0.80;0.80;;;9.40;99.90;;;;;;5036678;28;20299;-67
2022/04/08 07:43:50;;;;;;;0.67;0.67;;;9.40;99.90;;;;;;5038665;28;20209;-65
2022/04/08 07:46:17;;;;;;;0.87;0.77;;;9.40;99.90;;;;;;5039041;28;20600;-66
2022/04/08 07:48:44;;;;;;;0.70;0.70;;;9.40;99.90;;;;;;5041556;28;20244;-66
2022/04/08 07:51:11;;;;;;;0.70;0.70;;;9.40;99.90;;;;;;5048555;28;20270;-68
2022/04/08 07:53:37;;;;;;;0.80;0.80;;;9.40;99.90;;;;;;5045248;28;20249;-66
2022/04/08 07:56:05;;;;;;;0.68;0.68;;;9.40;99.90;;;;;;5045109;28;20215;-66
2022/04/08 07:58:32;;;;;;;0.70;0.70;;;9.50;99.90;;;;;;5041375;28;20267;-66
2022/04/08 08:01:00;;;;;;;0.83;0.83;;;9.50;99.90;;;;;;5039977;28;20667;-66
2022/04/08 08:03:27;;;;;;;0.90;0.90;;;9.60;99.90;;;;;;5037495;28;20255;-66
2022/04/08 08:05:54;;;;;;;0.50;0.50;;;9.50;99.90;;;;;;5035793;28;20236;-65
2022/04/08 08:08:21;;;;;;;1.10;1.10;;;9.50;99.90;;;;;;5033857;28;20240;-66
2022/04/08 08:10:49;;;;;;;0.87;0.87;;;9.30;99.90;;;;;;5032908;28;20299;-67
2022/04/08 08:13:16;;;;;;;0.77;0.77;;;9.40;99.90;;;;;;5030136;28;20205;-67
2022/04/08 08:15:43;;;;;;;0.70;0.70;;;9.40;99.90;;;;;;5032090;28;20204;-66
2022/04/08 08:18:11;;;;;;;0.52;0.52;;;9.40;99.90;;;;;;5032486;28;20884;-67
2022/04/08 08:20:38;;;;;;;0.73;0.73;;;9.30;99.90;;;;;;5032984;28;20240;-67
2022/04/08 08:23:07;;;;;;;0.60;0.60;;;9.40;99.90;;;;;;5033392;28;20208;-67
2022/04/08 08:25:34;;;;;;;0.70;0.70;;;9.40;99.90;;;;;;5036274;28;20223;-67
2022/04/08 08:28:02;;;;;;;0.50;0.50;;;9.50;99.90;;;;;;5051072;28;20193;-68
2022/04/08 08:30:30;;;;;;;0.73;0.73;;;9.50;99.90;;;;;;5031227;28;20263;-68
2022/04/08 08:32:59;;;;;;;0.87;0.70;;;9.60;99.90;;;;;;5030951;28;20658;-68
2022/04/08 08:35:27;;;;;;;0.77;0.77;;;9.70;99.90;;;;;;5029704;28;20209;-68
2022/04/08 08:37:54;;;;;;;0.60;0.60;;;9.80;99.90;;;;;;5029183;28;20203;-67
2022/04/08 08:40:22;;;;;;;0.90;0.90;;;9.80;99.90;;;;;;5030286;28;20710;-67
2022/04/08 08:42:49;;;;;;;0.70;0.70;;;9.80;99.90;;;;;;5030847;28;20212;-67
2022/04/08 08:45:17;;;;;;;0.97;0.97;;;9.90;99.90;;;;;;5031932;28;20666;-69
2022/04/08 08:47:48;;;;;;;0.60;0.60;;;10.00;99.90;;;;;;5030592;28;20675;-68
2022/04/08 08:50:17;;;;;;;0.53;0.53;;;10.10;99.90;;;;;;5029926;28;20224;-68
2022/04/08 08:52:49;;;;;;;0.40;0.40;;;10.10;99.90;;;;;;5027643;28;20232;-68
2022/04/08 08:55:16;;;;;;;0.60;0.60;;;10.10;99.90;;;;;;5026867;28;20258;-67
2022/04/08 08:57:45;;;;;;;0.50;0.50;;;10.10;99.90;;;;;;5030327;28;20239;-68
2022/04/08 09:00:15;;;;;;;0.63;0.63;;;10.10;99.90;;;;;;5030750;28;20706;-67
2022/04/08 09:02:44;;;;;;;0.80;0.80;;;10.10;99.90;;;;;;5033760;28;20227;-68
2022/04/08 09:05:13;;;;;;;0.87;0.87;;;10.10;99.90;;;;;;5032130;28;20240;-68
2022/04/08 09:07:40;;;;;;;0.80;0.80;;;10.10;99.90;;;;;;5030461;28;20236;-67
2022/04/08 09:10:10;;;;;;;0.60;0.60;;;10.10;99.90;;;;;;5036044;28;20288;-68
2022/04/08 09:12:37;;;;;;;0.50;0.50;;;10.20;99.90;;;;;;5043894;28;20225;-67
2022/04/08 09:15:05;;;;;;;0.50;0.50;;;10.20;99.90;;;;;;5042496;28;20309;-67
2022/04/08 09:17:32;;;;;;;0.40;0.40;;;10.10;99.90;;;;;;5031821;28;20299;-67
2022/04/08 09:20:00;;;;;;;0.47;0.47;;;10.00;99.90;;;;;;5028999;28;20224;-68
2022/04/08 09:22:28;;;;;;;0.40;0.40;;;10.00;99.90;;;;;;5030274;28;20706;-68
2022/04/08 09:24:55;;;;;;;0.40;0.40;;;10.10;99.90;;;;;;5029829;28;20839;-69
2022/04/08 09:27:33;;;;;;;0.40;0.40;;;10.10;99.90;;;;;;5031110;28;20223;-68
2022/04/08 09:30:00;;;;;;;0.30;0.30;;;10.10;99.90;;;;;;5030538;28;20226;-67
2022/04/08 09:32:27;;;;;;;0.40;0.40;;;10.10;99.90;;;;;;5026714;28;20201;-67
2022/04/08 09:34:54;;;;;;;0.30;0.30;;;10.20;99.90;;;;;;5030280;28;20212;-68
2022/04/08 09:37:21;;;;;;;0.40;0.40;;;10.20;99.90;;;;;;5039294;28;20204;-70
2022/04/08 09:39:57;;;;;;;0.40;0.40;;;10.40;99.90;;;;;;5031476;28;20741;-69
2022/04/08 09:42:31;;;;;;;0.53;0.53;;;10.20;99.90;;;;;;5016755;28;20271;-69
2022/04/08 09:44:58;;;;;;;0.30;0.30;;;10.20;99.90;;;;;;5010103;28;20280;-68
2022/04/08 09:47:25;;;;;;;0.60;0.60;;;10.30;99.90;;;;;;5015370;28;20232;-67
2022/04/08 09:49:51;;;;;;;0.70;0.70;;;10.40;99.90;;;;;;5029433;28;20220;-68
2022/04/08 09:52:21;;;;;;;0.70;0.70;;;10.50;99.90;;;;;;5027140;28;20270;-69
2022/04/08 09:54:49;;;;;;;0.47;0.47;;;10.50;99.90;;;;;;5028493;28;20239;-68
2022/04/08 09:57:22;;;;;;;0.70;0.70;;;10.60;99.90;;;;;;5028522;28;20295;-67
2022/04/08 09:59:55;;;;;;;0.63;0.63;;;10.70;99.90;;;;;;5025448;28;20344;-69
2022/04/08 10:02:27;;;;;;;0.80;0.80;;;10.80;99.90;;;;;;5028174;28;20622;-69
2022/04/08 10:04:56;;;;;;;0.70;0.70;;;10.60;99.90;;;;;;5028478;28;20243;-67
2022/04/08 10:07:24;;;;;;;0.60;0.60;;;10.60;99.90;;;;;;5029988;28;20302;-67
2022/04/08 10:10:10;;;;;;;0.60;0.60;;;10.60;99.90;;;;;;5029455;28;20709;-68
2022/04/08 10:12:45;;;;;;;0.80;0.80;;;10.60;99.90;;;;;;5030584;28;20197;-69
2022/04/08 10:15:26;;;;;;;0.53;0.53;;;10.70;99.90;;;;;;5030433;28;20737;-69
2022/04/08 10:17:57;;;;;;;0.40;0.40;;;10.60;99.90;;;;;;5034399;28;20697;-70
2022/04/08 10:20:24;;;;;;;0.70;0.70;;;10.60;99.90;;;;;;5044879;28;20228;-70
2022/04/08 10:22:52;;;;;;;0.60;0.60;;;10.60;99.90;;;;;;5059698;28;20299;-69
2022/04/08 10:25:22;;;;;;;0.57;0.57;;;10.70;99.90;;;;;;5049576;28;20208;-68
2022/04/08 10:28:00;;;;;;;0.50;0.50;;;10.40;99.90;;;;;;5031064;28;20291;-69
2022/04/08 10:30:28;;;;;;;0.50;0.50;;;10.10;99.90;;;;;;5030483;28;20231;-69
2022/04/08 10:33:00;;;;;;;0.60;0.60;;;10.00;99.90;;;;;;5044366;28;20310;-69
2022/04/08 10:35:27;;;;;;;0.83;0.83;;;9.90;99.90;;;;;;5039113;28;20208;-69
2022/04/08 10:37:59;;;;;;;0.60;0.60;;;9.70;99.90;;;;;;5033693;28;20212;-67
2022/04/08 10:40:33;;;;;;;0.43;0.43;;;9.70;99.90;;;;;;5033385;28;20679;-70
2022/04/08 10:43:02;;;;;;;0.50;0.50;;;9.60;99.90;;;;;;5034552;28;20678;-70
2022/04/08 10:45:31;;;;;;;0.50;0.50;;;9.40;99.90;;;;;;5041435;28;20240;-71
2022/04/08 10:48:02;;;;;;;0.40;0.40;;;9.70;99.90;;;;;;5053686;28;20200;-67
2022/04/08 10:50:31;;;;;;;0.33;0.33;;;9.70;99.90;;;;;;5051880;28;20221;-67
2022/04/08 10:53:12;;;;;;;0.30;0.30;;;9.70;99.90;;;;;;5046669;28;20205;-68
2022/04/08 10:55:48;;;;;;;0.50;0.50;;;9.90;99.90;;;;;;5039788;28;20227;-68
2022/04/08 10:58:16;;;;;;;0.40;0.40;;;9.90;99.90;;;;;;5033487;28;20211;-69
2022/04/08 11:00:45;;;;;;;0.53;0.53;;;10.00;99.90;;;;;;5027836;28;20290;-68
2022/04/08 11:03:12;;;;;;;0.40;0.40;;;10.10;99.90;;;;;;5032967;28;20205;-67
2022/04/08 11:05:40;;;;;;;0.47;0.47;;;9.90;99.90;;;;;;5032304;28;20258;-68
2022/04/08 11:08:08;;;;;;;0.80;0.80;;;9.80;99.90;;;;;;5031249;28;20292;-67
2022/04/08 11:10:35;;;;;;;0.60;0.60;;;9.80;99.90;;;;;;5038393;28;20227;-67
2022/04/08 11:13:02;;;;;;;0.60;0.60;;;9.80;99.90;;;;;;5034977;28;20244;-65
2022/04/08 11:15:30;;;;;;;0.60;0.60;;;9.70;99.90;;;;;;5034252;28;20212;-66
2022/04/08 11:18:01;;;;;;;0.60;0.60;;;9.70;99.90;;;;;;5031480;28;20295;-67
2022/04/08 11:20:29;;;;;;;0.60;0.60;;;9.60;99.90;;;;;;5034667;28;20235;-68
2022/04/08 11:22:58;;;;;;;0.67;0.67;;;9.50;99.90;;;;;;5036207;28;20259;-69
2022/04/08 11:25:26;;;;;;;0.70;0.70;;;9.40;99.90;;;;;;5050327;28;20204;-68
2022/04/08 11:28:00;;;;;;;0.90;0.90;;;9.40;99.90;;;;;;5057775;28;20196;-66
2022/04/08 11:30:27;;;;;;;1.00;1.00;;;9.40;99.90;;;;;;5055898;28;20231;-66
2022/04/08 11:32:54;;;;;;;1.23;0.90;;;9.40;99.90;;;;;;5032407;28;20287;-67
2022/04/08 11:35:23;;;;;;;0.80;0.80;;;9.30;99.90;;;;;;5030507;28;20292;-68
2022/04/08 11:37:50;;;;;;;0.80;0.80;;;9.20;99.90;;;;;;5033473;28;20211;-66
2022/04/08 11:40:18;;;;;;;0.70;0.70;;;9.40;99.90;;;;;;5030712;28;20746;-67
2022/04/08 11:42:46;;;;;;;0.77;0.77;;;9.30;99.90;;;;;;5030285;28;20744;-67
2022/04/08 11:45:14;;;;;;;0.80;0.80;;;9.50;99.90;;;;;;5031454;28;20212;-66
2022/04/08 11:47:47;;;;;;;1.10;1.10;;;9.60;99.90;;;;;;5029144;28;20675;-66
2022/04/08 11:50:14;;;;;;;0.70;0.70;;;9.70;99.90;;;;;;5030708;28;20220;-68
2022/04/08 11:52:53;;;;;;;0.80;0.80;;;9.60;99.90;;;;;;5031025;28;20208;-65
2022/04/08 11:55:23;;;;;;;0.67;0.67;;;9.70;99.90;;;;;;5029268;28;20887;-68
2022/04/08 11:57:51;;;;;;;0.63;0.63;;;9.70;99.90;;;;;;5031323;28;20239;-67
2022/04/08 12:00:18;;;;;;;0.70;0.70;;;9.80;99.90;;;;;;5030726;28;20761;-67
2022/04/08 12:02:48;;;;;;;0.60;0.60;;;9.70;99.90;;;;;;5031554;28;20224;-66
2022/04/08 12:05:24;;;;;;;0.70;0.70;;;9.60;99.90;;;;;;5025808;28;20200;-67
2022/04/08 12:07:53;;;;;;;0.77;0.77;;;9.60;99.90;;;;;;5029967;28;20205;-66
2022/04/08 12:10:22;;;;;;;0.93;0.93;;;9.50;99.90;;;;;;5032213;28;20224;-68
2022/04/08 12:12:49;;;;;;;0.70;0.70;;;9.40;99.90;;;;;;5031359;28;20232;-67
2022/04/08 12:15:20;;;;;;;0.60;0.60;;;9.50;99.90;;;;;;5029608;28;20718;-68
2022/04/08 12:17:46;;;;;;;0.70;0.70;;;9.70;99.90;;;;;;5031223;28;20204;-67
2022/04/08 12:20:14;;;;;;;0.77;0.77;;;9.60;99.90;;;;;;5024190;28;20339;-66
2022/04/08 12:22:42;;;;;;;0.70;0.70;;;9.70;99.90;;;;;;5035388;28;20205;-67
2022/04/08 12:25:10;;;;;;;0.77;0.77;;;9.80;99.90;;;;;;5037364;28;20207;-66
2022/04/08 12:27:38;;;;;;;0.87;0.87;;;10.00;99.90;;;;;;5035662;28;20229;-67
2022/04/08 12:30:08;;;;;;;0.80;0.80;;;10.00;99.90;;;;;;5031836;28;20224;-66
2022/04/08 12:32:36;;;;;;;0.90;0.90;;;10.00;99.90;;;;;;5034232;28;20211;-65
2022/04/08 12:35:06;;;;;;;0.97;0.97;;;10.00;99.90;;;;;;5038381;28;20215;-66
2022/04/08 12:37:33;;;;;;;1.00;1.00;;;10.10;99.90;;;;;;5047876;28;20732;-66
2022/04/08 12:40:00;;;;;;;1.10;1.10;;;10.10;99.90;;;;;;5041955;28;20220;-68
2022/04/08 12:42:28;;;;;;;1.10;1.10;;;10.20;99.90;;;;;;5043833;28;20305;-67
2022/04/08 12:44:55;;;;;;;1.20;1.20;;;10.20;99.90;;;;;;5034524;28;20610;-67
2022/04/08 12:47:22;;;;;;;1.20;1.20;;;10.10;99.90;;;;;;5037368;28;20246;-66
2022/04/08 12:49:48;;;;;;;1.27;1.27;;;10.00;99.90;;;;;;5033369;28;20464;-68
2022/04/08 12:52:22;;;;;;;1.40;1.40;;;10.10;99.90;;;;;;5034069;28;20669;-67
2022/04/08 12:54:49;;;;;;;1.40;1.30;;;10.20;99.90;;;;;;5049432;28;20205;-66
2022/04/08 12:57:17;;;;;;;1.38;1.38;;;10.20;99.90;;;;;;5050298;28;20244;-67
2022/04/08 12:59:46;;;;;;;1.50;1.50;;;10.20;99.90;;;;;;5045459;28;20248;-67
2022/04/08 13:02:13;;;;;;;1.20;1.20;;;10.30;99.90;;;;;;5042900;28;20781;-66
2022/04/08 13:04:40;;;;;;;1.00;1.00;;;10.40;99.90;;;;;;5058778;28;20233;-66
2022/04/08 13:07:08;;;;;;;0.60;0.60;;;10.40;99.90;;;;;;5037055;28;20281;-67
2022/04/08 13:09:35;;;;;;;1.07;1.07;;;10.50;99.90;;;;;;5034322;28;20239;-67
2022/04/08 13:12:02;;;;;;;1.30;1.30;;;10.60;99.90;;;;;;5037893;28;20208;-65
2022/04/08 13:14:29;;;;;;;1.00;1.00;;;10.70;99.90;;;;;;5031157;28;20219;-65
2022/04/08 13:16:58;;;;;;;1.25;1.25;;;10.70;99.90;;;;;;5031775;28;20208;-66
2022/04/08 13:19:25;;;;;;;1.20;1.20;;;10.80;99.90;;;;;;5031266;28;20260;-67
2022/04/08 13:21:52;;;;;;;1.20;1.20;;;10.70;99.90;;;;;;5031829;28;20252;-66
2022/04/08 13:24:21;;;;;;;1.23;1.13;;;10.80;99.90;;;;;;5030416;28;20677;-67
2022/04/08 13:26:48;;;;;;;0.80;0.80;;;10.80;99.90;;;;;;5032691;28;20674;-67
2022/04/08 13:29:15;;;;;;;0.60;0.60;;;10.90;99.90;;;;;;5039101;28;20297;-66
2022/04/08 13:31:42;;;;;;;0.60;0.60;;;11.00;99.90;;;;;;5043362;28;20208;-68
2022/04/08 13:34:15;;;;;;;0.30;0.30;;;11.30;99.90;;;;;;5051996;28;20201;-68
2022/04/08 13:36:42;;;;;;;0.50;0.50;;;11.50;99.90;;;;;;5049812;28;20235;-67
2022/04/08 13:39:09;;;;;;;0.30;0.30;;;11.70;99.90;;;;;;5045928;28;20228;-65